createdAt,value
2023-04-16T00:00:11.082Z,71.11
2023-04-16T00:01:11.074Z,71.04
2023-04-16T00:02:11.105Z,70.96
2023-04-16T00:03:11.296Z,71.04
2023-04-16T00:04:11.183Z,71.00
2023-04-16T00:05:11.080Z,70.97
2023-04-16T00:06:11.082Z,70.94
2023-04-16T00:07:11.072Z,70.98
2023-04-16T00:08:11.076Z,71.06
2023-04-16T00:09:11.261Z,71.08
2023-04-16T00:10:11.078Z,71.07
2023-04-16T00:11:11.076Z,71.02
2023-04-16T00:12:11.092Z,71.06
2023-04-16T00:13:11.078Z,71.02
2023-04-16T00:14:11.073Z,70.90
2023-04-16T00:15:11.079Z,70.80
2023-04-16T00:16:11.078Z,70.71
2023-04-16T00:17:11.106Z,70.65
2023-04-16T00:18:11.084Z,70.55
2023-04-16T00:19:11.296Z,70.56
2023-04-16T00:20:11.077Z,70.50
2023-04-16T00:21:11.080Z,70.40
2023-04-16T00:22:11.079Z,70.35
2023-04-16T00:23:11.082Z,70.30
2023-04-16T00:24:11.075Z,70.23
2023-04-16T00:25:11.081Z,70.27
2023-04-16T00:26:11.078Z,70.23
2023-04-16T00:27:11.082Z,70.14
2023-04-16T00:28:11.216Z,70.06
2023-04-16T00:29:11.265Z,70.07
2023-04-16T00:30:11.083Z,70.08
2023-04-16T00:31:11.131Z,70.19
2023-04-16T00:32:11.075Z,70.15
2023-04-16T00:33:11.078Z,70.17
2023-04-16T00:34:11.086Z,70.16
2023-04-16T00:35:11.077Z,70.13
2023-04-16T00:36:11.091Z,70.10
2023-04-16T00:37:11.082Z,70.07
2023-04-16T00:38:11.082Z,70.08
2023-04-16T00:39:11.228Z,70.09
2023-04-16T00:40:11.086Z,69.98
2023-04-16T00:41:11.080Z,69.96
2023-04-16T00:42:11.076Z,69.82
2023-04-16T00:43:11.082Z,69.78
2023-04-16T00:44:11.082Z,69.87
2023-04-16T00:45:11.079Z,69.83
2023-04-16T00:46:13.148Z,69.82
2023-04-16T00:47:11.085Z,69.83
2023-04-16T00:48:11.084Z,69.77
2023-04-16T00:49:11.252Z,69.80
2023-04-16T00:50:11.084Z,69.73
2023-04-16T00:51:11.081Z,69.67
2023-04-16T00:52:11.083Z,69.60
2023-04-16T00:53:11.086Z,69.59
2023-04-16T00:54:11.077Z,69.51
2023-04-16T00:55:11.081Z,69.41
2023-04-16T00:56:11.087Z,69.44
2023-04-16T00:57:11.090Z,69.46
2023-04-16T00:58:11.081Z,69.43
2023-04-16T00:59:11.297Z,69.37
2023-04-16T01:00:11.085Z,69.33
2023-04-16T01:01:11.142Z,69.32
2023-04-16T01:02:11.177Z,69.39
2023-04-16T01:03:11.192Z,69.38
2023-04-16T01:04:11.130Z,69.30
2023-04-16T01:05:11.070Z,69.42
2023-04-16T01:06:11.065Z,69.51
2023-04-16T01:07:11.063Z,69.59
2023-04-16T01:08:17.075Z,69.49
2023-04-16T01:09:11.302Z,69.39
2023-04-16T01:10:11.066Z,69.31
2023-04-16T01:11:11.073Z,69.42
2023-04-16T01:12:11.063Z,69.26
2023-04-16T01:13:11.069Z,69.23
2023-04-16T01:14:11.094Z,69.24
2023-04-16T01:15:11.064Z,69.27
2023-04-16T01:16:11.077Z,69.21
2023-04-16T01:17:11.081Z,69.14
2023-04-16T01:18:15.070Z,69.25
2023-04-16T01:19:11.314Z,69.32
2023-04-16T01:20:11.079Z,69.21
2023-04-16T01:21:11.080Z,69.13
2023-04-16T01:22:11.074Z,69.08
2023-04-16T01:23:11.074Z,68.94
2023-04-16T01:24:11.065Z,68.87
2023-04-16T01:25:13.066Z,68.93
2023-04-16T01:26:11.068Z,68.92
2023-04-16T01:27:11.067Z,68.84
2023-04-16T01:28:11.068Z,68.79
2023-04-16T01:29:11.357Z,68.85
2023-04-16T01:30:11.077Z,68.92
2023-04-16T01:31:11.130Z,68.88
2023-04-16T01:32:11.065Z,68.71
2023-04-16T01:33:12.078Z,68.90
2023-04-16T01:34:11.062Z,69.16
2023-04-16T01:35:11.066Z,69.08
2023-04-16T01:36:11.081Z,68.99
2023-04-16T01:37:11.065Z,68.79
2023-04-16T01:38:11.069Z,68.79
2023-04-16T01:39:11.229Z,68.73
2023-04-16T01:40:11.073Z,68.81
2023-04-16T01:41:11.074Z,68.61
2023-04-16T01:42:11.070Z,68.75
2023-04-16T01:43:11.068Z,68.74
2023-04-16T01:44:11.075Z,68.84
2023-04-16T01:45:11.067Z,68.82
2023-04-16T01:46:17.107Z,68.72
2023-04-16T01:47:11.062Z,68.71
2023-04-16T01:48:11.067Z,68.75
2023-04-16T01:49:11.351Z,68.80
2023-04-16T01:50:11.066Z,68.91
2023-04-16T01:51:11.068Z,68.98
2023-04-16T01:52:12.071Z,68.93
2023-04-16T01:53:11.066Z,69.08
2023-04-16T01:54:11.072Z,69.12
2023-04-16T01:55:11.076Z,69.12
2023-04-16T01:56:11.094Z,69.31
2023-04-16T01:57:11.070Z,69.12
2023-04-16T01:58:11.143Z,69.10
2023-04-16T01:59:11.352Z,69.13
2023-04-16T02:00:11.069Z,69.22
2023-04-16T02:01:11.138Z,69.18
2023-04-16T02:02:11.409Z,69.15
2023-04-16T02:03:11.178Z,69.03
2023-04-16T02:04:11.124Z,69.20
2023-04-16T02:05:11.077Z,69.14
2023-04-16T02:06:11.071Z,69.19
2023-04-16T02:07:11.076Z,69.11
2023-04-16T02:08:11.077Z,69.01
2023-04-16T02:09:11.194Z,68.92
2023-04-16T02:10:11.072Z,68.94
2023-04-16T02:11:11.073Z,68.92
2023-04-16T02:12:11.078Z,68.85
2023-04-16T02:13:11.067Z,68.89
2023-04-16T02:14:11.068Z,68.82
2023-04-16T02:15:11.077Z,68.72
2023-04-16T02:16:11.084Z,68.68
2023-04-16T02:17:11.072Z,68.69
2023-04-16T02:18:11.079Z,68.68
2023-04-16T02:19:11.286Z,68.83
2023-04-16T02:20:12.071Z,68.80
2023-04-16T02:21:11.086Z,68.87
2023-04-16T02:22:11.067Z,68.92
2023-04-16T02:23:11.070Z,68.85
2023-04-16T02:24:11.081Z,68.75
2023-04-16T02:25:11.068Z,68.69
2023-04-16T02:26:11.061Z,68.63
2023-04-16T02:27:11.074Z,68.56
2023-04-16T02:28:14.067Z,68.67
2023-04-16T02:29:11.262Z,68.58
2023-04-16T02:30:11.074Z,68.64
2023-04-16T02:31:11.092Z,68.77
2023-04-16T02:32:11.156Z,68.72
2023-04-16T02:33:11.068Z,68.65
2023-04-16T02:34:11.074Z,68.65
2023-04-16T02:35:11.084Z,68.86
2023-04-16T02:36:11.068Z,69.12
2023-04-16T02:37:11.068Z,69.01
2023-04-16T02:38:11.066Z,68.95
2023-04-16T02:39:11.293Z,68.85
2023-04-16T02:40:11.065Z,68.87
2023-04-16T02:41:11.069Z,68.98
2023-04-16T02:42:11.070Z,69.11
2023-04-16T02:43:11.067Z,69.16
2023-04-16T02:44:11.066Z,69.05
2023-04-16T02:45:11.069Z,69.28
2023-04-16T02:46:11.121Z,69.25
2023-04-16T02:47:11.067Z,69.25
2023-04-16T02:48:11.082Z,69.10
2023-04-16T02:49:11.194Z,69.11
2023-04-16T02:50:11.083Z,68.98
2023-04-16T02:51:11.070Z,68.98
2023-04-16T02:52:11.067Z,69.04
2023-04-16T02:53:11.074Z,69.13
2023-04-16T02:54:11.075Z,69.14
2023-04-16T02:55:11.072Z,69.09
2023-04-16T02:56:11.071Z,69.07
2023-04-16T02:57:11.070Z,69.18
2023-04-16T02:58:11.072Z,69.16
2023-04-16T02:59:11.350Z,69.30
2023-04-16T03:00:11.077Z,69.24
2023-04-16T03:01:11.086Z,69.21
2023-04-16T03:02:11.080Z,69.44
2023-04-16T03:03:11.108Z,69.41
2023-04-16T03:04:11.105Z,69.31
2023-04-16T03:05:11.070Z,69.40
2023-04-16T03:06:11.073Z,69.48
2023-04-16T03:07:11.078Z,69.55
2023-04-16T03:08:11.071Z,69.56
2023-04-16T03:09:11.314Z,69.57
2023-04-16T03:10:11.073Z,69.50
2023-04-16T03:11:11.073Z,69.59
2023-04-16T03:12:11.071Z,69.58
2023-04-16T03:13:11.072Z,69.63
2023-04-16T03:14:11.073Z,69.58
2023-04-16T03:15:11.078Z,69.52
2023-04-16T03:16:11.168Z,69.65
2023-04-16T03:17:11.069Z,69.69
2023-04-16T03:18:11.075Z,69.56
2023-04-16T03:19:11.243Z,69.75
2023-04-16T03:20:11.074Z,69.82
2023-04-16T03:21:11.081Z,69.71
2023-04-16T03:22:11.074Z,69.58
2023-04-16T03:23:11.086Z,69.51
2023-04-16T03:24:11.084Z,69.42
2023-04-16T03:25:11.070Z,69.36
2023-04-16T03:26:11.075Z,69.44
2023-04-16T03:27:11.087Z,69.40
2023-04-16T03:28:11.072Z,69.37
2023-04-16T03:29:11.275Z,69.39
2023-04-16T03:30:13.079Z,69.29
2023-04-16T03:31:11.105Z,69.23
2023-04-16T03:32:11.076Z,69.25
2023-04-16T03:33:11.089Z,69.20
2023-04-16T03:34:11.075Z,69.14
2023-04-16T03:35:11.079Z,69.18
2023-04-16T03:36:11.086Z,69.17
2023-04-16T03:37:11.074Z,69.17
2023-04-16T03:38:11.081Z,69.10
2023-04-16T03:39:11.383Z,69.04
2023-04-16T03:40:11.074Z,69.08
2023-04-16T03:41:11.080Z,69.12
2023-04-16T03:42:11.086Z,69.22
2023-04-16T03:43:11.076Z,69.28
2023-04-16T03:44:11.084Z,69.29
2023-04-16T03:45:11.085Z,69.37
2023-04-16T03:46:11.091Z,69.47
2023-04-16T03:47:11.079Z,69.66
2023-04-16T03:48:11.079Z,69.72
2023-04-16T03:49:11.361Z,69.71
2023-04-16T03:50:11.082Z,69.74
2023-04-16T03:51:11.100Z,69.82
2023-04-16T03:52:11.077Z,69.83
2023-04-16T03:53:11.076Z,69.90
2023-04-16T03:54:11.096Z,69.96
2023-04-16T03:55:11.083Z,70.09
2023-04-16T03:56:11.080Z,70.07
2023-04-16T03:57:11.083Z,70.13
2023-04-16T03:58:11.082Z,70.20
2023-04-16T03:59:11.267Z,70.19
2023-04-16T04:00:11.081Z,70.44
2023-04-16T04:01:11.059Z,70.52
2023-04-16T04:02:11.144Z,70.57
2023-04-16T04:03:11.365Z,70.60
2023-04-16T04:04:11.241Z,70.52
2023-04-16T04:05:11.118Z,70.61
2023-04-16T04:06:11.059Z,70.69
2023-04-16T04:07:11.077Z,70.70
2023-04-16T04:08:11.057Z,70.81
2023-04-16T04:09:11.204Z,70.91
2023-04-16T04:10:11.066Z,71.23
2023-04-16T04:11:11.071Z,71.04
2023-04-16T04:12:11.063Z,70.89
2023-04-16T04:13:11.059Z,70.80
2023-04-16T04:14:11.064Z,70.81
2023-04-16T04:15:11.064Z,70.92
2023-04-16T04:16:11.080Z,71.01
2023-04-16T04:17:11.063Z,70.95
2023-04-16T04:18:11.070Z,70.88
2023-04-16T04:19:11.636Z,70.97
2023-04-16T04:20:11.061Z,70.93
2023-04-16T04:21:11.064Z,70.92
2023-04-16T04:22:11.076Z,71.00
2023-04-16T04:23:11.072Z,71.10
2023-04-16T04:24:11.071Z,71.15
2023-04-16T04:25:11.061Z,71.43
2023-04-16T04:26:11.091Z,71.47
2023-04-16T04:27:11.066Z,71.43
2023-04-16T04:28:12.059Z,71.26
2023-04-16T04:29:11.268Z,71.32
2023-04-16T04:30:11.064Z,71.52
2023-04-16T04:31:11.084Z,71.57
2023-04-16T04:32:11.071Z,71.64
2023-04-16T04:33:11.074Z,71.59
2023-04-16T04:34:11.060Z,71.50
2023-04-16T04:35:11.068Z,71.55
2023-04-16T04:36:11.064Z,71.68
2023-04-16T04:37:11.078Z,71.79
2023-04-16T04:38:11.063Z,71.95
2023-04-16T04:39:11.254Z,72.09
2023-04-16T04:40:11.060Z,72.03
2023-04-16T04:41:11.063Z,72.04
2023-04-16T04:42:11.064Z,71.98
2023-04-16T04:43:11.063Z,71.99
2023-04-16T04:44:11.062Z,72.16
2023-04-16T04:45:11.067Z,72.16
2023-04-16T04:46:11.113Z,72.03
2023-04-16T04:47:11.061Z,72.17
2023-04-16T04:48:11.065Z,72.09
2023-04-16T04:49:11.235Z,72.00
2023-04-16T04:50:11.071Z,71.95
2023-04-16T04:51:11.074Z,72.11
2023-04-16T04:52:11.063Z,72.18
2023-04-16T04:53:13.082Z,72.24
2023-04-16T04:54:11.073Z,72.08
2023-04-16T04:55:11.063Z,71.99
2023-04-16T04:56:12.889Z,72.11
2023-04-16T04:57:11.094Z,72.22
2023-04-16T04:58:11.083Z,72.20
2023-04-16T04:59:11.317Z,72.11
2023-04-16T05:00:11.063Z,72.10
2023-04-16T05:01:11.131Z,72.19
2023-04-16T05:02:11.088Z,72.40
2023-04-16T05:03:12.165Z,72.52
2023-04-16T05:04:11.208Z,72.61
2023-04-16T05:05:11.097Z,72.43
2023-04-16T05:06:11.071Z,72.47
2023-04-16T05:07:11.076Z,72.40
2023-04-16T05:08:11.064Z,72.34
2023-04-16T05:09:11.248Z,72.50
2023-04-16T05:10:11.067Z,72.59
2023-04-16T05:11:11.070Z,72.53
2023-04-16T05:12:11.075Z,72.56
2023-04-16T05:13:11.066Z,72.61
2023-04-16T05:14:11.074Z,72.94
2023-04-16T05:15:11.076Z,72.87
2023-04-16T05:16:11.097Z,72.85
2023-04-16T05:17:11.098Z,72.75
2023-04-16T05:18:11.076Z,72.68
2023-04-16T05:19:11.246Z,72.68
2023-04-16T05:20:11.076Z,72.71
2023-04-16T05:21:11.076Z,72.81
2023-04-16T05:22:11.082Z,73.20
2023-04-16T05:23:11.070Z,73.23
2023-04-16T05:24:12.064Z,73.30
2023-04-16T05:25:11.087Z,73.33
2023-04-16T05:26:11.070Z,73.24
2023-04-16T05:27:11.085Z,73.12
2023-04-16T05:28:11.070Z,72.94
2023-04-16T05:29:11.283Z,72.83
2023-04-16T05:30:11.088Z,72.80
2023-04-16T05:31:11.084Z,72.65
2023-04-16T05:32:11.094Z,72.58
2023-04-16T05:33:11.078Z,72.58
2023-04-16T05:34:11.070Z,72.73
2023-04-16T05:35:11.077Z,72.94
2023-04-16T05:36:11.080Z,72.92
2023-04-16T05:37:11.070Z,72.92
2023-04-16T05:38:11.074Z,72.86
2023-04-16T05:39:11.208Z,72.62
2023-04-16T05:40:11.071Z,72.50
2023-04-16T05:41:11.067Z,72.48
2023-04-16T05:42:11.072Z,72.49
2023-04-16T05:43:11.066Z,72.53
2023-04-16T05:44:11.070Z,72.88
2023-04-16T05:45:11.070Z,72.75
2023-04-16T05:46:11.097Z,72.46
2023-04-16T05:47:11.084Z,72.42
2023-04-16T05:48:11.070Z,72.34
2023-04-16T05:49:11.306Z,72.35
2023-04-16T05:50:11.070Z,72.42
2023-04-16T05:51:11.073Z,72.44
2023-04-16T05:52:11.069Z,72.60
2023-04-16T05:53:11.070Z,72.57
2023-04-16T05:54:11.069Z,72.52
2023-04-16T05:55:11.073Z,72.62
2023-04-16T05:56:11.078Z,72.77
2023-04-16T05:57:11.076Z,72.83
2023-04-16T05:58:11.067Z,73.04
2023-04-16T05:59:11.231Z,72.93
2023-04-16T06:00:11.071Z,72.89
2023-04-16T06:01:11.070Z,72.81
2023-04-16T06:02:11.179Z,72.83
2023-04-16T06:03:11.259Z,73.12
2023-04-16T06:04:11.265Z,72.92
2023-04-16T06:05:11.120Z,72.89
2023-04-16T06:06:11.075Z,72.93
2023-04-16T06:07:11.065Z,72.95
2023-04-16T06:08:11.081Z,73.01
2023-04-16T06:09:11.355Z,73.03
2023-04-16T06:10:11.073Z,73.09
2023-04-16T06:11:11.078Z,73.19
2023-04-16T06:12:11.072Z,73.35
2023-04-16T06:13:11.076Z,73.40
2023-04-16T06:14:11.074Z,73.66
2023-04-16T06:15:11.074Z,73.79
2023-04-16T06:16:11.112Z,73.57
2023-04-16T06:17:11.080Z,73.69
2023-04-16T06:18:11.137Z,73.56
2023-04-16T06:19:11.244Z,73.47
2023-04-16T06:20:11.079Z,73.46
2023-04-16T06:21:11.076Z,73.58
2023-04-16T06:22:11.073Z,73.67
2023-04-16T06:23:11.087Z,73.94
2023-04-16T06:24:11.071Z,73.80
2023-04-16T06:25:11.072Z,73.68
2023-04-16T06:26:11.080Z,73.74
2023-04-16T06:27:11.071Z,73.58
2023-04-16T06:28:11.084Z,73.51
2023-04-16T06:29:11.282Z,73.50
2023-04-16T06:30:14.097Z,73.50
2023-04-16T06:31:11.094Z,73.48
2023-04-16T06:32:11.089Z,73.40
2023-04-16T06:33:11.074Z,73.37
2023-04-16T06:34:11.087Z,73.37
2023-04-16T06:35:11.084Z,73.37
2023-04-16T06:36:11.076Z,73.50
2023-04-16T06:37:11.082Z,73.43
2023-04-16T06:38:11.081Z,73.38
2023-04-16T06:39:11.275Z,73.26
2023-04-16T06:40:11.089Z,73.21
2023-04-16T06:41:11.082Z,73.15
2023-04-16T06:42:11.080Z,73.33
2023-04-16T06:43:11.082Z,73.40
2023-04-16T06:44:11.082Z,73.32
2023-04-16T06:45:11.071Z,73.51
2023-04-16T06:46:11.079Z,73.37
2023-04-16T06:47:11.109Z,73.13
2023-04-16T06:48:11.071Z,73.09
2023-04-16T06:49:11.294Z,72.99
2023-04-16T06:50:11.090Z,72.89
2023-04-16T06:51:11.074Z,72.84
2023-04-16T06:52:11.081Z,72.64
2023-04-16T06:53:11.094Z,72.48
2023-04-16T06:54:11.079Z,72.30
2023-04-16T06:55:12.079Z,72.23
2023-04-16T06:56:11.090Z,72.35
2023-04-16T06:57:11.078Z,72.48
2023-04-16T06:58:11.078Z,72.64
2023-04-16T06:59:11.304Z,72.74
2023-04-16T07:00:11.077Z,73.22
2023-04-16T07:01:11.112Z,73.29
2023-04-16T07:02:11.165Z,73.69
2023-04-16T07:03:11.253Z,74.24
2023-04-16T07:04:11.128Z,74.52
2023-04-16T07:05:11.066Z,74.74
2023-04-16T07:06:11.070Z,74.73
2023-04-16T07:07:11.060Z,74.84
2023-04-16T07:08:11.056Z,74.72
2023-04-16T07:09:11.324Z,74.79
2023-04-16T07:10:11.058Z,74.75
2023-04-16T07:11:11.067Z,74.46
2023-04-16T07:12:11.073Z,74.39
2023-04-16T07:13:11.059Z,74.34
2023-04-16T07:14:11.080Z,74.47
2023-04-16T07:15:11.075Z,74.53
2023-04-16T07:16:11.080Z,74.51
2023-04-16T07:17:11.076Z,74.57
2023-04-16T07:18:11.105Z,74.46
2023-04-16T07:19:11.297Z,74.61
2023-04-16T07:20:11.069Z,74.69
2023-04-16T07:21:11.058Z,74.82
2023-04-16T07:22:11.065Z,74.97
2023-04-16T07:23:11.075Z,74.87
2023-04-16T07:24:11.067Z,74.81
2023-04-16T07:25:11.067Z,75.09
2023-04-16T07:26:11.070Z,74.87
2023-04-16T07:27:11.063Z,75.07
2023-04-16T07:28:11.062Z,75.08
2023-04-16T07:29:11.292Z,74.91
2023-04-16T07:30:11.078Z,74.95
2023-04-16T07:31:11.066Z,74.92
2023-04-16T07:32:12.391Z,75.15
2023-04-16T07:33:11.148Z,75.50
2023-04-16T07:34:11.067Z,75.52
2023-04-16T07:35:11.086Z,75.43
2023-04-16T07:36:11.085Z,75.17
2023-04-16T07:37:11.066Z,75.35
2023-04-16T07:38:11.074Z,75.40
2023-04-16T07:39:11.394Z,75.44
2023-04-16T07:40:11.084Z,75.42
2023-04-16T07:41:11.068Z,75.11
2023-04-16T07:42:11.070Z,74.81
2023-04-16T07:43:11.076Z,74.91
2023-04-16T07:44:11.082Z,75.10
2023-04-16T07:45:11.066Z,75.30
2023-04-16T07:46:11.126Z,75.11
2023-04-16T07:47:11.073Z,74.84
2023-04-16T07:48:11.079Z,74.67
2023-04-16T07:49:11.224Z,74.70
2023-04-16T07:50:11.071Z,74.74
2023-04-16T07:51:11.067Z,74.51
2023-04-16T07:52:11.063Z,74.01
2023-04-16T07:53:11.088Z,73.51
2023-04-16T07:54:11.101Z,73.50
2023-04-16T07:55:11.065Z,73.55
2023-04-16T07:56:11.081Z,73.82
2023-04-16T07:57:11.068Z,73.88
2023-04-16T07:58:11.067Z,73.91
2023-04-16T07:59:21.655Z,73.78
2023-04-16T08:00:13.051Z,73.66
2023-04-16T08:01:11.066Z,73.57
2023-04-16T08:02:12.165Z,73.67
2023-04-16T08:03:11.389Z,73.32
2023-04-16T08:04:11.233Z,73.33
2023-04-16T08:05:11.191Z,72.96
2023-04-16T08:06:11.070Z,72.50
2023-04-16T08:07:11.072Z,72.77
2023-04-16T08:08:11.069Z,72.63
2023-04-16T08:09:11.286Z,72.65
2023-04-16T08:10:11.065Z,72.60
2023-04-16T08:11:11.088Z,72.61
2023-04-16T08:12:11.070Z,72.56
2023-04-16T08:13:11.069Z,72.42
2023-04-16T08:14:11.074Z,72.57
2023-04-16T08:15:11.086Z,72.67
2023-04-16T08:16:11.112Z,72.81
2023-04-16T08:17:11.071Z,72.84
2023-04-16T08:18:11.074Z,72.86
2023-04-16T08:19:11.249Z,73.05
2023-04-16T08:20:12.810Z,72.80
2023-04-16T08:21:11.074Z,72.71
2023-04-16T08:22:11.078Z,72.64
2023-04-16T08:23:11.070Z,72.88
2023-04-16T08:24:11.073Z,73.24
2023-04-16T08:25:11.082Z,73.07
2023-04-16T08:26:11.075Z,72.87
2023-04-16T08:27:18.527Z,73.03
2023-04-16T08:28:13.042Z,72.88
2023-04-16T08:29:11.326Z,72.96
2023-04-16T08:30:11.080Z,73.17
2023-04-16T08:31:11.094Z,73.24
2023-04-16T08:32:11.071Z,73.40
2023-04-16T08:33:11.097Z,73.24
2023-04-16T08:34:11.070Z,73.30
2023-04-16T08:35:11.090Z,73.20
2023-04-16T08:36:11.081Z,73.48
2023-04-16T08:37:11.075Z,73.47
2023-04-16T08:38:11.084Z,73.65
2023-04-16T08:39:11.343Z,73.33
2023-04-16T08:40:11.080Z,72.39
2023-04-16T08:41:13.083Z,72.15
2023-04-16T08:42:17.077Z,72.36
2023-04-16T08:43:14.072Z,71.62
2023-04-16T08:44:13.074Z,70.61
2023-04-16T08:45:15.072Z,70.56
2023-04-16T08:46:11.112Z,70.60
2023-04-16T08:47:11.075Z,69.99
2023-04-16T08:48:13.077Z,70.28
2023-04-16T08:49:15.118Z,69.68
2023-04-16T08:50:11.076Z,69.40
2023-04-16T08:51:11.234Z,69.84
2023-04-16T08:52:14.075Z,69.77
2023-04-16T08:53:15.079Z,69.65
2023-04-16T08:54:11.087Z,68.97
2023-04-16T08:55:14.082Z,68.98
2023-04-16T08:56:11.078Z,68.86
2023-04-16T08:57:11.083Z,68.94
2023-04-16T08:58:18.071Z,69.43
2023-04-16T08:59:11.231Z,69.33
2023-04-16T09:00:11.077Z,69.26
2023-04-16T09:01:11.078Z,69.05
2023-04-16T09:02:12.177Z,68.56
2023-04-16T09:03:11.243Z,68.57
2023-04-16T09:04:11.385Z,67.81
2023-04-16T09:05:11.075Z,67.44
2023-04-16T09:06:11.083Z,67.46
2023-04-16T09:07:11.075Z,67.39
2023-04-16T09:08:11.082Z,67.10
2023-04-16T09:09:11.254Z,66.83
2023-04-16T09:10:11.077Z,67.00
2023-04-16T09:11:11.078Z,66.67
2023-04-16T09:12:11.096Z,66.83
2023-04-16T09:13:11.080Z,66.40
2023-04-16T09:14:11.085Z,66.13
2023-04-16T09:15:12.088Z,66.24
2023-04-16T09:16:11.095Z,66.46
2023-04-16T09:17:11.105Z,65.51
2023-04-16T09:18:11.078Z,65.00
2023-04-16T09:19:11.246Z,65.23
2023-04-16T09:20:11.129Z,64.99
2023-04-16T09:21:11.083Z,64.66
2023-04-16T09:22:11.080Z,64.72
2023-04-16T09:23:11.080Z,64.88
2023-04-16T09:24:13.078Z,64.65
2023-04-16T09:25:11.076Z,65.06
2023-04-16T09:26:11.078Z,64.78
2023-04-16T09:27:11.082Z,64.05
2023-04-16T09:28:11.090Z,63.88
2023-04-16T09:29:11.289Z,63.83
2023-04-16T09:30:19.176Z,63.74
2023-04-16T09:31:14.078Z,64.13
2023-04-16T09:32:11.197Z,63.80
2023-04-16T09:33:19.080Z,64.12
2023-04-16T09:34:11.079Z,64.21
2023-04-16T09:35:11.081Z,64.12
2023-04-16T09:36:11.088Z,64.25
2023-04-16T09:37:15.081Z,63.74
2023-04-16T09:38:11.089Z,63.83
2023-04-16T09:39:18.086Z,63.79
2023-04-16T09:40:11.085Z,63.44
2023-04-16T09:41:11.082Z,63.42
2023-04-16T09:42:11.090Z,63.72
2023-04-16T09:43:17.089Z,63.59
2023-04-16T09:44:11.079Z,63.46
2023-04-16T09:45:11.087Z,63.84
2023-04-16T09:46:12.166Z,63.63
2023-04-16T09:47:11.079Z,63.57
2023-04-16T09:48:11.085Z,63.85
2023-04-16T09:49:15.103Z,63.72
2023-04-16T09:50:13.721Z,64.09
2023-04-16T09:51:11.083Z,63.71
2023-04-16T09:52:17.086Z,64.08
2023-04-16T09:53:11.083Z,63.95
2023-04-16T09:54:11.086Z,64.00
2023-04-16T09:55:11.092Z,64.07
2023-04-16T09:56:11.104Z,63.65
2023-04-16T09:57:11.087Z,63.94
2023-04-16T09:58:11.098Z,62.98
2023-04-16T09:59:15.086Z,63.03
2023-04-16T10:00:11.494Z,62.25
2023-04-16T10:01:11.101Z,62.31
2023-04-16T10:02:15.771Z,61.92
2023-04-16T10:03:13.223Z,62.21
2023-04-16T10:04:11.178Z,61.79
2023-04-16T10:05:14.064Z,61.35
2023-04-16T10:06:17.070Z,61.42
2023-04-16T10:07:11.067Z,61.65
2023-04-16T10:08:16.064Z,61.57
2023-04-16T10:09:11.301Z,61.37
2023-04-16T10:10:11.067Z,61.87
2023-04-16T10:11:11.067Z,62.01
2023-04-16T10:12:11.061Z,61.76
2023-04-16T10:13:11.070Z,61.59
2023-04-16T10:14:11.065Z,61.53
2023-04-16T10:15:11.071Z,61.38
2023-04-16T10:16:11.083Z,61.72
2023-04-16T10:17:11.096Z,61.35
2023-04-16T10:18:11.095Z,61.26
2023-04-16T10:19:11.247Z,61.02
2023-04-16T10:20:13.704Z,61.08
2023-04-16T10:21:11.071Z,60.95
2023-04-16T10:22:11.074Z,61.14
2023-04-16T10:23:11.068Z,61.63
2023-04-16T10:24:11.071Z,62.01
2023-04-16T10:25:11.077Z,62.01
2023-04-16T10:26:11.085Z,61.49
2023-04-16T10:27:11.067Z,61.08
2023-04-16T10:28:11.076Z,60.46
2023-04-16T10:29:11.189Z,60.34
2023-04-16T10:30:11.073Z,60.87
2023-04-16T10:31:11.213Z,60.86
2023-04-16T10:32:11.068Z,60.97
2023-04-16T10:33:11.124Z,59.89
2023-04-16T10:34:11.075Z,60.17
2023-04-16T10:35:14.069Z,60.12
2023-04-16T10:36:13.072Z,60.01
2023-04-16T10:37:11.075Z,59.23
2023-04-16T10:38:19.072Z,59.55
2023-04-16T10:39:15.489Z,59.39
2023-04-16T10:40:23.070Z,59.48
2023-04-16T10:41:11.069Z,59.62
2023-04-16T10:42:11.070Z,59.20
2023-04-16T10:43:15.070Z,59.11
2023-04-16T10:44:11.093Z,59.23
2023-04-16T10:45:12.072Z,59.07
2023-04-16T10:46:19.089Z,59.19
2023-04-16T10:47:13.128Z,58.84
2023-04-16T10:48:11.075Z,59.06
2023-04-16T10:49:18.067Z,59.56
2023-04-16T10:50:16.085Z,58.85
2023-04-16T10:51:15.079Z,58.98
2023-04-16T10:52:11.071Z,58.55
2023-04-16T10:53:17.072Z,58.47
2023-04-16T10:54:19.069Z,58.65
2023-04-16T10:55:17.078Z,58.46
2023-04-16T10:56:13.112Z,58.25
2023-04-16T10:57:14.063Z,58.68
2023-04-16T10:58:19.077Z,58.47
2023-04-16T10:59:11.337Z,57.41
2023-04-16T11:00:19.070Z,57.56
2023-04-16T11:01:13.119Z,58.60
2023-04-16T11:02:15.189Z,58.74
2023-04-16T11:03:11.119Z,58.84
2023-04-16T11:04:19.213Z,59.56
2023-04-16T11:05:11.068Z,59.87
2023-04-16T11:06:17.073Z,59.54
2023-04-16T11:07:19.168Z,60.25
2023-04-16T11:08:15.072Z,61.21
2023-04-16T11:09:19.076Z,61.35
2023-04-16T11:10:14.070Z,61.33
2023-04-16T11:11:11.069Z,61.36
2023-04-16T11:12:12.072Z,61.69
2023-04-16T11:13:12.066Z,61.46
2023-04-16T11:14:11.081Z,61.37
2023-04-16T11:15:13.083Z,61.34
2023-04-16T11:16:11.120Z,61.05
2023-04-16T11:17:11.082Z,60.61
2023-04-16T11:18:11.182Z,60.45
2023-04-16T11:19:15.071Z,60.57
2023-04-16T11:20:20.957Z,60.44
2023-04-16T11:21:11.081Z,60.11
2023-04-16T11:22:12.073Z,60.62
2023-04-16T11:23:12.072Z,60.41
2023-04-16T11:24:14.072Z,59.79
2023-04-16T11:25:11.082Z,60.24
2023-04-16T11:26:19.072Z,60.38
2023-04-16T11:27:11.070Z,60.26
2023-04-16T11:28:11.073Z,60.61
2023-04-16T11:29:15.083Z,60.54
2023-04-16T11:30:11.071Z,60.77
2023-04-16T11:31:13.088Z,60.49
2023-04-16T11:32:11.078Z,60.66
2023-04-16T11:33:11.076Z,60.74
2023-04-16T11:34:12.070Z,61.00
2023-04-16T11:35:15.092Z,60.82
2023-04-16T11:36:11.068Z,60.99
2023-04-16T11:37:11.074Z,61.02
2023-04-16T11:38:11.074Z,60.95
2023-04-16T11:39:11.217Z,60.91
2023-04-16T11:40:13.103Z,60.91
2023-04-16T11:41:11.078Z,61.43
2023-04-16T11:42:11.079Z,61.39
2023-04-16T11:43:15.092Z,61.30
2023-04-16T11:44:19.082Z,61.33
2023-04-16T11:45:11.079Z,61.91
2023-04-16T11:46:26.390Z,61.88
2023-04-16T11:47:13.094Z,61.78
2023-04-16T11:48:11.354Z,61.96
2023-04-16T11:49:11.253Z,61.93
2023-04-16T11:50:21.075Z,62.01
2023-04-16T11:51:11.084Z,62.50
2023-04-16T11:52:11.073Z,63.14
2023-04-16T11:53:12.082Z,63.91
2023-04-16T11:54:15.081Z,63.68
2023-04-16T11:55:11.075Z,64.47
2023-04-16T11:56:11.070Z,65.40
2023-04-16T11:57:11.080Z,65.27
2023-04-16T11:58:15.078Z,64.97
2023-04-16T11:59:18.087Z,65.65
2023-04-16T12:00:13.135Z,65.56
2023-04-16T12:01:11.076Z,66.07
2023-04-16T12:02:11.157Z,65.77
2023-04-16T12:03:11.370Z,65.85
2023-04-16T12:04:11.474Z,66.15
2023-04-16T12:05:19.074Z,66.15
2023-04-16T12:06:11.076Z,66.00
2023-04-16T12:07:13.084Z,65.76
2023-04-16T12:08:11.082Z,65.46
2023-04-16T12:09:19.079Z,65.44
2023-04-16T12:10:11.077Z,65.32
2023-04-16T12:11:11.090Z,65.16
2023-04-16T12:12:19.074Z,65.00
2023-04-16T12:13:15.097Z,64.95
2023-04-16T12:14:11.101Z,64.88
2023-04-16T12:15:11.079Z,65.03
2023-04-16T12:16:19.160Z,65.13
2023-04-16T12:17:20.090Z,65.04
2023-04-16T12:18:11.115Z,64.93
2023-04-16T12:19:12.254Z,64.75
2023-04-16T12:20:13.078Z,64.98
2023-04-16T12:21:11.115Z,64.02
2023-04-16T12:22:11.079Z,64.25
2023-04-16T12:23:11.082Z,64.46
2023-04-16T12:24:11.087Z,63.78
2023-04-16T12:25:13.092Z,62.99
2023-04-16T12:26:11.080Z,62.87
2023-04-16T12:27:11.087Z,62.75
2023-04-16T12:28:11.079Z,62.73
2023-04-16T12:29:18.082Z,62.54
2023-04-16T12:30:11.118Z,63.19
2023-04-16T12:31:11.115Z,62.61
2023-04-16T12:32:19.118Z,62.39
2023-04-16T12:33:17.082Z,61.57
2023-04-16T12:34:11.083Z,60.70
2023-04-16T12:35:11.082Z,60.39
2023-04-16T12:36:19.094Z,60.13
2023-04-16T12:37:11.091Z,59.86
2023-04-16T12:38:11.082Z,60.33
2023-04-16T12:39:11.331Z,59.96
2023-04-16T12:40:11.132Z,59.51
2023-04-16T12:41:11.082Z,59.25
2023-04-16T12:42:13.075Z,58.64
2023-04-16T12:43:11.122Z,58.03
2023-04-16T12:44:15.084Z,57.79
2023-04-16T12:45:11.085Z,57.46
2023-04-16T12:46:12.118Z,57.18
2023-04-16T12:47:11.103Z,57.25
2023-04-16T12:48:11.096Z,57.29
2023-04-16T12:49:11.386Z,57.42
2023-04-16T12:50:11.172Z,57.04
2023-04-16T12:51:11.087Z,57.10
2023-04-16T12:52:11.090Z,56.64